createdAt,value
2023-05-18T00:01:45.550Z,9.98
2023-05-18T00:04:13.307Z,10.01
2023-05-18T00:06:40.728Z,10.02
2023-05-18T00:09:08.562Z,9.85
2023-05-18T00:11:35.975Z,9.83
2023-05-18T00:14:05.021Z,9.75
2023-05-18T00:16:32.366Z,9.59
2023-05-18T00:19:00.285Z,9.71
2023-05-18T00:21:27.644Z,9.63
2023-05-18T00:23:55.456Z,9.56
2023-05-18T00:26:22.986Z,9.58
2023-05-18T00:28:50.744Z,9.61
2023-05-18T00:31:19.543Z,9.35
2023-05-18T00:33:47.241Z,9.12
2023-05-18T00:36:14.701Z,9.11
2023-05-18T00:38:42.578Z,9.06
2023-05-18T00:41:10.135Z,9.16
2023-05-18T00:43:40.697Z,9.20
2023-05-18T00:46:08.084Z,9.23
2023-05-18T00:48:37.243Z,9.26
2023-05-18T00:51:05.517Z,9.31
2023-05-18T00:53:33.769Z,9.28
2023-05-18T00:56:01.145Z,9.31
2023-05-18T00:58:29.307Z,9.20
2023-05-18T01:00:57.627Z,9.30
2023-05-18T01:03:25.945Z,9.42
2023-05-18T01:05:54.868Z,9.31
2023-05-18T01:08:23.279Z,9.21
2023-05-18T01:10:54.156Z,9.19
2023-05-18T01:13:30.799Z,9.12
2023-05-18T01:16:01.676Z,9.13
2023-05-18T01:18:35.216Z,9.14
2023-05-18T01:21:17.896Z,9.21
2023-05-18T01:24:12.193Z,9.08
2023-05-18T01:26:43.743Z,9.09
2023-05-18T01:29:13.991Z,9.09
2023-05-18T01:31:41.817Z,9.19
2023-05-18T01:34:09.608Z,9.28
2023-05-18T01:36:37.031Z,9.30
2023-05-18T01:39:05.044Z,9.29
2023-05-18T01:41:35.312Z,9.33
2023-05-18T01:44:10.812Z,9.34
2023-05-18T01:46:51.024Z,9.29
2023-05-18T01:49:27.084Z,9.34
2023-05-18T01:51:58.457Z,9.35
2023-05-18T01:54:27.678Z,9.34
2023-05-18T01:56:55.883Z,9.37
2023-05-18T01:59:26.027Z,9.38
2023-05-18T02:01:59.368Z,9.36
2023-05-18T02:04:27.877Z,9.45
2023-05-18T02:06:55.548Z,9.37
2023-05-18T02:09:23.788Z,9.40
2023-05-18T02:11:51.115Z,9.42
2023-05-18T02:14:20.251Z,9.41
2023-05-18T02:16:48.996Z,9.53
2023-05-18T02:19:16.895Z,9.52
2023-05-18T02:21:44.282Z,9.31
2023-05-18T02:24:12.497Z,9.14
2023-05-18T02:26:40.130Z,9.00
2023-05-18T02:29:07.984Z,9.02
2023-05-18T02:31:35.607Z,8.91
2023-05-18T02:34:04.847Z,9.07
2023-05-18T02:36:32.642Z,9.22
2023-05-18T02:39:00.491Z,9.08
2023-05-18T02:41:27.853Z,9.20
2023-05-18T02:43:55.566Z,9.09
2023-05-18T02:46:23.084Z,9.01
2023-05-18T02:48:50.893Z,8.89
2023-05-18T02:51:19.728Z,8.89
2023-05-18T02:53:47.876Z,8.96
2023-05-18T02:56:15.327Z,8.99
2023-05-18T02:58:43.257Z,9.07
2023-05-18T03:01:11.201Z,9.15
2023-05-18T03:03:40.111Z,9.23
2023-05-18T03:06:07.663Z,9.10
2023-05-18T03:08:37.170Z,8.86
2023-05-18T03:11:04.912Z,8.85
2023-05-18T03:13:32.619Z,8.74
2023-05-18T03:16:00.095Z,8.54
2023-05-18T03:18:28.052Z,8.37
2023-05-18T03:20:55.461Z,8.36
2023-05-18T03:23:23.269Z,8.57
2023-05-18T03:25:52.140Z,8.71
2023-05-18T03:28:20.257Z,8.95
2023-05-18T03:30:47.781Z,8.81
2023-05-18T03:33:15.637Z,8.90
2023-05-18T03:35:43.425Z,8.68
2023-05-18T03:38:11.460Z,8.59
2023-05-18T03:40:38.822Z,8.71
2023-05-18T03:43:08.102Z,8.71
2023-05-18T03:45:35.548Z,8.70
2023-05-18T03:48:03.473Z,8.82
2023-05-18T03:50:31.187Z,8.76
2023-05-18T03:52:59.014Z,8.87
2023-05-18T03:55:26.285Z,9.03
2023-05-18T03:57:54.056Z,9.09
2023-05-18T04:00:23.191Z,8.99
2023-05-18T04:02:51.010Z,8.95
2023-05-18T04:05:18.771Z,8.70
2023-05-18T04:07:46.574Z,8.52
2023-05-18T04:10:14.618Z,8.60
2023-05-18T04:12:42.415Z,8.61
2023-05-18T04:15:10.611Z,8.71
2023-05-18T04:17:39.817Z,8.83
2023-05-18T04:20:08.235Z,8.86
2023-05-18T04:22:40.611Z,9.02
2023-05-18T04:25:09.368Z,9.17
2023-05-18T04:27:37.417Z,9.16
2023-05-18T04:30:05.888Z,9.13
2023-05-18T04:32:33.673Z,9.07
2023-05-18T04:35:03.378Z,9.25
2023-05-18T04:37:31.585Z,9.27
2023-05-18T04:39:59.188Z,9.34
2023-05-18T04:42:26.939Z,9.40
2023-05-18T04:44:54.481Z,9.40
2023-05-18T04:47:22.427Z,9.35
2023-05-18T04:49:49.890Z,9.43
2023-05-18T04:52:19.092Z,9.43
2023-05-18T04:58:36.991Z,9.46
2023-05-18T05:01:04.778Z,9.34
2023-05-18T05:03:32.767Z,9.30
2023-05-18T05:06:00.707Z,9.44
2023-05-18T05:08:29.653Z,9.51
2023-05-18T05:10:57.425Z,9.46
2023-05-18T05:13:24.759Z,9.65
2023-05-18T05:15:52.702Z,9.65
2023-05-18T05:18:20.117Z,9.66
2023-05-18T05:20:50.166Z,9.65
2023-05-18T05:23:17.638Z,9.77
2023-05-18T05:25:46.911Z,9.66
2023-05-18T05:28:14.327Z,9.92
2023-05-18T05:30:42.133Z,10.01
2023-05-18T05:33:09.635Z,10.15
2023-05-18T05:35:37.846Z,10.15
2023-05-18T05:38:05.430Z,10.05
2023-05-18T05:40:33.221Z,10.11
2023-05-18T05:43:02.138Z,10.14
2023-05-18T05:45:30.158Z,10.06
2023-05-18T05:47:57.920Z,10.07
2023-05-18T05:50:26.238Z,10.14
2023-05-18T05:52:53.863Z,10.18
2023-05-18T05:55:21.926Z,10.17
2023-05-18T05:57:49.288Z,10.30
2023-05-18T06:00:19.103Z,10.31
2023-05-18T06:02:46.444Z,10.28
2023-05-18T06:05:14.197Z,10.22
2023-05-18T06:07:41.711Z,10.41
2023-05-18T06:10:09.693Z,10.57
2023-05-18T06:12:37.024Z,10.57
2023-05-18T06:15:05.283Z,10.42
2023-05-18T06:17:34.049Z,10.40
2023-05-18T06:20:01.859Z,10.48
2023-05-18T06:22:29.136Z,10.49
2023-05-18T06:24:57.222Z,10.62
2023-05-18T06:27:24.818Z,10.78
2023-05-18T06:29:52.531Z,10.80
2023-05-18T06:32:20.106Z,10.87
2023-05-18T06:34:49.283Z,11.00
2023-05-18T06:37:17.682Z,11.05
2023-05-18T06:39:45.443Z,11.25
2023-05-18T06:42:12.860Z,11.13
2023-05-18T06:44:40.623Z,11.04
2023-05-18T06:47:08.324Z,11.07
2023-05-18T06:49:36.175Z,10.91
2023-05-18T06:52:05.871Z,11.00
2023-05-18T06:54:33.586Z,11.17
2023-05-18T06:57:00.896Z,11.26
2023-05-18T06:59:28.820Z,11.36
2023-05-18T07:01:56.329Z,11.33
2023-05-18T07:04:24.190Z,11.31
2023-05-18T07:06:51.772Z,11.38
2023-05-18T07:09:20.985Z,11.20
2023-05-18T07:11:48.418Z,11.36
2023-05-18T07:14:16.205Z,11.23
2023-05-18T07:16:43.637Z,11.22
2023-05-18T07:19:11.492Z,11.05
2023-05-18T07:21:38.868Z,11.25
2023-05-18T07:24:06.920Z,11.45
2023-05-18T07:26:35.826Z,11.46
2023-05-18T07:29:03.822Z,11.58
2023-05-18T07:31:31.198Z,11.68
2023-05-18T07:33:59.089Z,11.74
2023-05-18T07:36:26.419Z,11.71
2023-05-18T07:38:54.188Z,11.73
2023-05-18T07:41:21.888Z,11.77
2023-05-18T07:43:51.715Z,11.83
2023-05-18T07:46:19.513Z,11.85
2023-05-18T07:48:47.311Z,11.99
2023-05-18T07:51:14.781Z,11.98
2023-05-18T07:53:42.574Z,12.07
2023-05-18T07:56:10.038Z,12.07
2023-05-18T07:58:37.933Z,12.07
2023-05-18T08:01:06.838Z,12.19
2023-05-18T08:03:34.666Z,12.47
2023-05-18T08:06:02.245Z,12.47
2023-05-18T08:08:30.068Z,12.58
2023-05-18T08:10:57.634Z,12.72
2023-05-18T08:13:25.378Z,12.74
2023-05-18T08:16:03.147Z,12.64
2023-05-18T08:18:40.526Z,12.73
2023-05-18T08:21:08.486Z,12.96
2023-05-18T08:23:37.124Z,13.14
2023-05-18T08:26:04.577Z,13.01
2023-05-18T08:28:32.480Z,13.07
2023-05-18T08:31:00.040Z,13.41
2023-05-18T08:33:27.979Z,13.23
2023-05-18T08:35:56.837Z,13.24
2023-05-18T08:38:24.573Z,13.17
2023-05-18T08:40:59.028Z,13.35
2023-05-18T08:43:30.143Z,13.58
2023-05-18T08:46:04.880Z,13.98
2023-05-18T08:48:33.351Z,14.08
2023-05-18T08:51:06.587Z,14.24
2023-05-18T08:53:38.051Z,14.47
2023-05-18T08:56:06.046Z,14.37
2023-05-18T08:58:43.968Z,14.67
2023-05-18T09:01:12.170Z,14.80
2023-05-18T09:03:41.416Z,15.13
2023-05-18T09:06:10.816Z,15.38
2023-05-18T09:08:39.955Z,15.42
2023-05-18T09:11:08.473Z,15.38
2023-05-18T09:13:36.273Z,15.57
2023-05-18T09:16:03.871Z,15.31
2023-05-18T09:18:31.865Z,15.39
2023-05-18T09:20:59.361Z,15.32
2023-05-18T09:23:28.680Z,15.12
2023-05-18T09:25:56.897Z,15.11
2023-05-18T09:28:31.362Z,15.44
2023-05-18T09:30:58.953Z,15.45
2023-05-18T09:33:32.528Z,15.43
2023-05-18T09:36:00.348Z,15.68
2023-05-18T09:38:29.663Z,16.18
2023-05-18T09:40:57.055Z,15.74
2023-05-18T09:43:24.806Z,15.92
2023-05-18T09:45:52.165Z,15.66
2023-05-18T09:48:21.153Z,15.63
2023-05-18T09:50:50.032Z,15.96
2023-05-18T09:53:18.256Z,16.13
2023-05-18T09:55:48.754Z,16.67
2023-05-18T09:58:17.270Z,16.76
2023-05-18T10:00:48.266Z,17.24
2023-05-18T10:03:21.674Z,17.28
2023-05-18T10:05:49.212Z,17.21
2023-05-18T10:08:17.544Z,17.04
2023-05-18T10:10:48.118Z,16.92
2023-05-18T10:13:17.117Z,16.70
2023-05-18T10:15:49.761Z,16.64
2023-05-18T10:18:22.668Z,16.58
2023-05-18T10:20:58.480Z,16.84
2023-05-18T10:23:33.944Z,16.87
2023-05-18T10:26:05.615Z,16.30
2023-05-18T10:28:36.344Z,16.53
2023-05-18T10:31:04.902Z,16.70
2023-05-18T10:33:33.493Z,16.63
2023-05-18T10:36:03.468Z,16.97
2023-05-18T10:38:33.199Z,17.41
2023-05-18T10:41:04.263Z,17.16
2023-05-18T10:43:34.317Z,16.86
2023-05-18T10:46:01.938Z,16.65
2023-05-18T10:48:30.247Z,16.55
2023-05-18T10:50:58.821Z,16.59
2023-05-18T10:53:28.056Z,17.08
2023-05-18T10:55:55.545Z,16.70
2023-05-18T10:58:26.488Z,16.89
2023-05-18T11:00:57.102Z,17.05
2023-05-18T11:03:26.091Z,17.48
2023-05-18T11:06:04.879Z,17.80
2023-05-18T11:08:32.878Z,17.67
2023-05-18T11:11:02.776Z,17.68
2023-05-18T11:13:33.481Z,17.70
2023-05-18T11:16:06.101Z,18.25
2023-05-18T11:18:43.514Z,18.02
2023-05-18T11:21:22.174Z,18.53
2023-05-18T11:24:15.388Z,18.45
2023-05-18T11:26:43.549Z,17.75
2023-05-18T11:29:19.033Z,16.79
2023-05-18T11:31:47.516Z,17.15
2023-05-18T11:34:39.435Z,18.24
2023-05-18T11:37:07.985Z,18.47
2023-05-18T11:39:39.750Z,19.02
2023-05-18T11:42:12.592Z,19.42
2023-05-18T11:44:41.797Z,19.27
2023-05-18T11:47:10.153Z,19.05
2023-05-18T11:49:42.993Z,19.03
2023-05-18T11:52:16.533Z,19.22
2023-05-18T11:54:46.281Z,19.35
2023-05-18T11:57:15.566Z,20.01
2023-05-18T11:59:46.052Z,20.08
2023-05-18T12:02:21.305Z,19.60
2023-05-18T12:04:52.222Z,19.52
2023-05-18T12:07:20.561Z,19.79
2023-05-18T12:09:48.877Z,19.99
2023-05-18T12:12:17.675Z,20.32
2023-05-18T12:14:53.401Z,20.74
2023-05-18T12:17:20.851Z,21.07
2023-05-18T12:19:49.728Z,21.40
2023-05-18T12:22:17.213Z,21.05
2023-05-18T12:24:44.987Z,20.88
2023-05-18T12:27:12.784Z,20.51
2023-05-18T12:29:42.393Z,20.76
2023-05-18T12:32:12.940Z,20.28
2023-05-18T12:34:40.735Z,19.84
2023-05-18T12:37:08.184Z,19.96
2023-05-18T12:39:36.784Z,19.87
2023-05-18T12:42:11.885Z,20.46
2023-05-18T12:44:40.799Z,20.99
2023-05-18T12:47:08.421Z,21.22
2023-05-18T12:49:39.184Z,21.57
2023-05-18T12:52:11.049Z,21.40
2023-05-18T12:54:49.566Z,20.90
2023-05-18T12:57:17.202Z,20.93
2023-05-18T12:59:48.462Z,21.20
2023-05-18T13:02:27.636Z,21.24
2023-05-18T13:05:04.491Z,21.57
2023-05-18T13:07:32.061Z,21.15
2023-05-18T13:10:06.022Z,21.39
2023-05-18T13:12:44.110Z,21.36
2023-05-18T13:15:14.068Z,21.31
2023-05-18T13:17:49.479Z,21.58
2023-05-18T13:20:19.303Z,22.08
2023-05-18T13:22:46.718Z,21.92
2023-05-18T13:25:14.573Z,22.15
2023-05-18T13:27:43.107Z,22.64
2023-05-18T13:30:11.862Z,22.44
2023-05-18T13:32:39.363Z,22.09
2023-05-18T13:35:07.648Z,21.97
2023-05-18T13:37:36.600Z,22.13
2023-05-18T13:40:05.453Z,22.37
2023-05-18T13:42:33.047Z,22.71
2023-05-18T13:45:00.795Z,22.85
2023-05-18T13:47:28.079Z,23.19
2023-05-18T13:49:55.854Z,22.45
2023-05-18T13:52:23.298Z,20.80
2023-05-18T13:54:52.589Z,20.18
2023-05-18T13:57:19.999Z,19.61
2023-05-18T13:59:47.810Z,19.73
2023-05-18T14:02:15.320Z,20.00
2023-05-18T14:04:43.356Z,20.14
2023-05-18T14:07:10.788Z,20.48
2023-05-18T14:09:38.629Z,19.90
2023-05-18T14:12:08.490Z,19.88
2023-05-18T14:14:36.259Z,20.11
2023-05-18T14:17:03.826Z,20.56
2023-05-18T14:19:31.608Z,21.06
2023-05-18T14:21:58.966Z,20.97
2023-05-18T14:24:26.726Z,20.55
2023-05-18T14:26:54.117Z,20.53
2023-05-18T14:29:23.327Z,20.32
2023-05-18T14:31:50.739Z,20.13
2023-05-18T14:34:18.570Z,20.35
2023-05-18T14:36:46.026Z,20.38
2023-05-18T14:39:13.746Z,20.41
2023-05-18T14:41:41.126Z,20.53
2023-05-18T14:44:08.882Z,21.02
2023-05-18T14:46:38.198Z,20.88
2023-05-18T14:49:06.108Z,20.50
2023-05-18T14:51:33.590Z,19.94
2023-05-18T14:54:01.440Z,19.51
2023-05-18T14:56:28.934Z,19.26
2023-05-18T14:58:56.768Z,19.53
2023-05-18T15:01:24.130Z,19.61
2023-05-18T15:03:53.550Z,19.94
2023-05-18T15:06:21.133Z,19.95
2023-05-18T15:08:48.956Z,19.95
2023-05-18T15:11:16.361Z,19.86
2023-05-18T15:13:44.203Z,19.84
2023-05-18T15:16:11.977Z,19.60
2023-05-18T15:18:39.959Z,19.44
2023-05-18T15:21:08.783Z,19.48
2023-05-18T15:23:36.504Z,19.75
2023-05-18T15:26:04.393Z,19.96
2023-05-18T15:28:33.134Z,20.41
2023-05-18T15:31:00.601Z,20.57
2023-05-18T15:33:28.305Z,20.31
2023-05-18T15:35:55.840Z,18.91
2023-05-18T15:38:25.642Z,18.69
2023-05-18T15:40:53.160Z,18.95
2023-05-18T15:43:21.052Z,19.07
2023-05-18T15:45:48.497Z,19.11
2023-05-18T15:48:16.435Z,19.34
2023-05-18T15:50:43.919Z,19.39
2023-05-18T15:53:11.778Z,19.30
2023-05-18T15:55:40.608Z,19.07
2023-05-18T15:58:08.431Z,18.76
2023-05-18T16:00:35.901Z,18.69
2023-05-18T16:03:03.897Z,18.83
2023-05-18T16:05:32.062Z,18.69
2023-05-18T16:08:00.382Z,19.08
2023-05-18T16:10:28.132Z,18.95
2023-05-18T16:12:57.433Z,18.80
2023-05-18T16:15:24.895Z,18.50
2023-05-18T16:17:52.756Z,18.50
2023-05-18T16:20:20.152Z,18.53
2023-05-18T16:22:48.092Z,18.42
2023-05-18T16:25:15.660Z,18.40
2023-05-18T16:27:43.572Z,18.37
2023-05-18T16:30:13.084Z,18.41
2023-05-18T16:32:40.921Z,18.21
2023-05-18T16:35:09.010Z,18.09
2023-05-18T16:37:36.962Z,18.11
2023-05-18T16:40:04.529Z,18.02
2023-05-18T16:42:32.456Z,18.02
2023-05-18T16:44:59.945Z,18.23
2023-05-18T16:47:29.306Z,18.15
2023-05-18T16:49:56.786Z,18.25
2023-05-18T16:52:24.674Z,18.33
2023-05-18T16:54:52.112Z,18.33
2023-05-18T16:57:19.988Z,18.42
2023-05-18T16:59:47.565Z,18.39
2023-05-18T17:02:15.552Z,18.44
2023-05-18T17:04:45.102Z,18.44
2023-05-18T17:07:12.897Z,18.30
2023-05-18T17:09:40.430Z,18.31
2023-05-18T17:12:09.074Z,18.18
2023-05-18T17:14:36.773Z,18.12
2023-05-18T17:17:05.882Z,18.09
2023-05-18T17:19:33.782Z,17.80
2023-05-18T17:22:03.281Z,17.74
2023-05-18T17:24:30.946Z,17.50
2023-05-18T17:26:59.292Z,17.46
2023-05-18T17:29:26.969Z,17.21
2023-05-18T17:31:55.276Z,17.06
2023-05-18T17:34:23.310Z,17.07
2023-05-18T17:36:51.223Z,17.23
2023-05-18T17:39:20.088Z,16.88
2023-05-18T17:41:48.006Z,16.83
2023-05-18T17:44:15.388Z,16.82
2023-05-18T17:46:43.667Z,16.77
2023-05-18T17:49:11.109Z,16.91
2023-05-18T17:51:39.342Z,17.00
2023-05-18T17:54:06.791Z,17.00
2023-05-18T17:56:36.526Z,16.99
2023-05-18T17:59:04.139Z,17.07
2023-05-18T18:01:32.313Z,16.82
2023-05-18T18:04:00.233Z,16.58
2023-05-18T18:06:28.516Z,16.45
2023-05-18T18:08:58.404Z,16.30
2023-05-18T18:11:27.036Z,16.52
2023-05-18T18:13:55.829Z,16.35
2023-05-18T18:16:23.680Z,16.09
2023-05-18T18:18:51.220Z,16.07
2023-05-18T18:21:19.010Z,16.09
2023-05-18T18:23:46.472Z,16.09
2023-05-18T18:26:14.284Z,16.05
2023-05-18T18:28:41.765Z,16.11
2023-05-18T18:31:11.204Z,15.92
2023-05-18T18:33:38.658Z,15.96
2023-05-18T18:36:07.177Z,15.92
2023-05-18T18:38:34.435Z,15.66
2023-05-18T18:41:02.197Z,15.61
2023-05-18T18:43:29.742Z,15.61
2023-05-18T18:45:57.607Z,15.57
2023-05-18T18:48:26.836Z,15.52
2023-05-18T18:50:54.634Z,15.38
2023-05-18T18:53:22.146Z,15.21
2023-05-18T18:55:50.121Z,15.30
2023-05-18T18:58:17.611Z,15.34
2023-05-18T19:00:45.424Z,15.29
2023-05-18T19:03:13.093Z,15.37
2023-05-18T19:05:42.465Z,15.31
2023-05-18T19:08:09.963Z,15.42
2023-05-18T19:10:37.786Z,15.41
2023-05-18T19:13:05.301Z,15.42
2023-05-18T19:15:33.866Z,15.40
2023-05-18T19:18:01.906Z,15.40
2023-05-18T19:20:30.131Z,15.36
2023-05-18T19:22:59.016Z,15.33
2023-05-18T19:25:26.765Z,14.94
2023-05-18T19:27:54.593Z,14.62
2023-05-18T19:30:23.361Z,14.66
2023-05-18T19:32:51.890Z,14.75
2023-05-18T19:35:20.246Z,14.77
2023-05-18T19:37:48.057Z,14.72
2023-05-18T19:40:17.629Z,14.69
2023-05-18T19:42:45.131Z,14.47
2023-05-18T19:45:12.986Z,14.18
2023-05-18T19:47:40.478Z,14.09
2023-05-18T19:50:08.681Z,13.91
2023-05-18T19:52:36.143Z,13.82
2023-05-18T19:55:04.385Z,14.01
2023-05-18T19:57:33.210Z,14.04
2023-05-18T20:00:01.027Z,13.97
2023-05-18T20:02:28.734Z,13.94
2023-05-18T20:04:56.630Z,13.85
2023-05-18T20:07:24.071Z,13.94
2023-05-18T20:09:52.286Z,14.04
2023-05-18T20:12:19.758Z,14.08
2023-05-18T20:14:49.273Z,14.11
2023-05-18T20:17:17.752Z,14.15
2023-05-18T20:19:45.642Z,14.12
2023-05-18T20:22:13.302Z,13.97
2023-05-18T20:24:41.627Z,13.70
2023-05-18T20:27:09.068Z,13.44
2023-05-18T20:29:37.100Z,13.19
2023-05-18T20:32:07.040Z,13.15
2023-05-18T20:34:35.071Z,13.19
2023-05-18T20:37:02.640Z,13.19
2023-05-18T20:39:31.577Z,13.16
2023-05-18T20:41:59.326Z,13.03
2023-05-18T20:44:27.494Z,12.70
2023-05-18T20:46:55.943Z,12.39
2023-05-18T20:49:25.795Z,12.69
2023-05-18T20:51:53.411Z,12.74
2023-05-18T20:54:21.533Z,12.74
2023-05-18T20:56:49.392Z,12.53
2023-05-18T20:59:17.232Z,12.66
2023-05-18T21:01:44.800Z,12.40
2023-05-18T21:04:13.358Z,11.94
2023-05-18T21:06:42.535Z,12.22
2023-05-18T21:09:10.489Z,12.16
2023-05-18T21:11:37.882Z,12.20
2023-05-18T21:14:06.031Z,12.23
2023-05-18T21:16:34.046Z,12.08
2023-05-18T21:19:02.016Z,11.35
2023-05-18T21:21:29.720Z,11.52
2023-05-18T21:23:59.125Z,11.43
2023-05-18T21:26:27.138Z,11.40
2023-05-18T21:28:54.958Z,11.68
2023-05-18T21:31:22.468Z,11.68
2023-05-18T21:33:50.379Z,11.40
2023-05-18T21:36:20.635Z,11.35
2023-05-18T21:38:48.823Z,11.56
2023-05-18T21:41:17.652Z,11.53
2023-05-18T21:43:45.392Z,11.39
2023-05-18T21:46:12.860Z,11.48
2023-05-18T21:48:40.646Z,11.52
2023-05-18T21:51:08.139Z,11.21
2023-05-18T21:53:35.956Z,11.15
2023-05-18T21:56:03.537Z,11.08
2023-05-18T21:58:32.865Z,11.14
2023-05-18T22:01:00.293Z,10.93
2023-05-18T22:03:28.067Z,11.00
2023-05-18T22:05:55.536Z,11.04
2023-05-18T22:08:23.252Z,10.97
2023-05-18T22:10:50.722Z,10.83
2023-05-18T22:13:18.619Z,10.75
2023-05-18T22:15:47.526Z,10.70
2023-05-18T22:18:15.519Z,10.68
2023-05-18T22:20:42.905Z,10.65
2023-05-18T22:23:10.700Z,10.71
2023-05-18T22:25:38.186Z,10.65
2023-05-18T22:28:05.789Z,10.64
2023-05-18T22:30:33.399Z,10.38
2023-05-18T22:33:02.802Z,10.40
2023-05-18T22:35:30.375Z,10.46
2023-05-18T22:37:58.190Z,10.31
2023-05-18T22:40:25.497Z,10.08
2023-05-18T22:42:53.265Z,10.31
2023-05-18T22:45:21.071Z,10.39
2023-05-18T22:47:48.987Z,10.04
2023-05-18T22:50:18.146Z,10.26
2023-05-18T22:52:46.078Z,10.13
2023-05-18T22:55:13.558Z,10.17
2023-05-18T22:57:42.118Z,10.20
2023-05-18T23:00:11.373Z,10.35
2023-05-18T23:02:39.552Z,10.49
2023-05-18T23:05:07.895Z,10.29
2023-05-18T23:07:37.252Z,10.25
2023-05-18T23:10:05.939Z,10.50
2023-05-18T23:12:33.946Z,10.61
2023-05-18T23:15:01.343Z,10.43
2023-05-18T23:17:29.561Z,10.42
2023-05-18T23:19:58.501Z,10.51
2023-05-18T23:22:26.589Z,10.44
2023-05-18T23:24:55.303Z,10.61
2023-05-18T23:27:23.089Z,10.67
2023-05-18T23:29:50.536Z,10.70
2023-05-18T23:32:18.460Z,10.75
2023-05-18T23:34:46.538Z,10.80
2023-05-18T23:37:16.623Z,10.72
2023-05-18T23:39:46.128Z,10.73
2023-05-18T23:42:16.634Z,10.58
2023-05-18T23:44:45.018Z,10.57
2023-05-18T23:47:14.406Z,10.81
2023-05-18T23:49:42.425Z,10.93
2023-05-18T23:52:11.240Z,10.99
2023-05-18T23:54:39.248Z,10.91
2023-05-18T23:57:08.206Z,10.87
2023-05-18T23:59:37.899Z,10.93
